Time;durP1;ratioP1;P1;durP2;ratioP2;P2;SDS_P1;SDS_P2;PMS_P1;PMS_P2;Temp;Humidity;BMP_temperature;BMP_pressure;BME280_temperature;BME280_humidity;BME280_pressure;Samples;Min_cycle;Max_cycle;Signal;HPM_P1;HPM_P2
2022/05/12 00:02:07;;;;;;;3.80;3.37;;;21.80;98.90;;;22.56;nan;100318.72;4914471;29;20821;-69
2022/05/12 00:04:36;;;;;;;3.50;3.17;;;21.80;98.80;;;22.52;nan;100322.81;4913979;29;20721;-69
2022/05/12 00:07:04;;;;;;;4.23;3.00;;;21.70;98.80;;;22.56;nan;100329.38;4913185;29;20665;-68
2022/05/12 00:09:32;;;;;;;4.30;3.30;;;21.70;98.70;;;22.54;nan;100327.91;4914227;29;20618;-68
2022/05/12 00:11:59;;;;;;;3.03;2.83;;;21.70;98.80;;;22.48;nan;100328.69;4914013;29;20641;-69
2022/05/12 00:14:27;;;;;;;2.80;2.67;;;21.70;98.50;;;22.46;nan;100331.56;4913697;29;20676;-67
2022/05/12 00:16:57;;;;;;;4.70;3.20;;;21.60;98.30;;;22.45;nan;100335.22;4921533;29;20634;-69
2022/05/12 00:19:29;;;;;;;2.83;2.63;;;21.60;98.40;;;22.46;nan;100338.69;4913802;29;20634;-68
2022/05/12 00:21:56;;;;;;;3.17;2.87;;;21.60;97.90;;;22.50;nan;100348.75;4912815;29;20705;-68
2022/05/12 00:24:24;;;;;;;4.83;3.00;;;21.70;97.30;;;22.43;nan;100337.25;4912736;29;20661;-69
2022/05/12 00:26:51;;;;;;;3.30;3.00;;;21.60;97.30;;;22.44;nan;100341.56;4913348;29;20634;-70
2022/05/12 00:29:18;;;;;;;2.83;2.63;;;21.60;96.70;;;22.45;nan;100345.03;4912946;29;20638;-69
2022/05/12 00:31:47;;;;;;;4.00;2.80;;;21.60;96.50;;;22.37;nan;100341.50;4912656;29;20649;-69
2022/05/12 00:34:17;;;;;;;4.43;3.13;;;21.60;96.30;;;22.38;nan;100352.97;4912558;29;20662;-69
2022/05/12 00:36:44;;;;;;;3.93;3.00;;;21.60;96.10;;;22.37;nan;100353.97;4912452;29;21197;-69
2022/05/12 00:39:12;;;;;;;3.33;3.03;;;21.60;96.00;;;22.37;nan;100353.97;4913786;29;20626;-70
2022/05/12 00:41:40;;;;;;;3.80;3.00;;;21.60;95.80;;;22.35;nan;100356.84;4911357;29;21043;-69
2022/05/12 00:44:12;;;;;;;2.60;2.50;;;21.60;95.70;;;22.33;nan;100358.03;4927443;29;20665;-69
2022/05/12 00:46:41;;;;;;;3.97;2.80;;;21.50;95.40;;;22.31;nan;100368.03;4913322;29;20670;-70
2022/05/12 00:49:30;;;;;;;2.60;2.50;;;21.50;94.90;;;22.35;nan;100361.31;4912548;29;21205;-69
2022/05/12 00:52:12;;;;;;;2.73;2.53;;;21.60;94.90;;;22.30;nan;100353.91;4928123;29;20606;-69
2022/05/12 00:55:17;;;;;;;2.50;2.40;;;21.50;94.80;;;22.29;nan;100370.06;4911425;29;20740;-70
2022/05/12 00:57:55;;;;;;;3.73;3.20;;;21.50;94.60;;;22.28;nan;100373.72;4914862;29;21002;-69
2022/05/12 01:00:23;;;;;;;3.10;2.47;;;21.50;94.70;;;22.25;nan;100377.59;4915706;29;21271;-69
2022/05/12 01:02:56;;;;;;;2.20;2.10;;;21.50;94.80;;;22.27;nan;100375.59;4916286;29;20673;-69
2022/05/12 01:05:25;;;;;;;2.50;2.40;;;21.50;94.60;;;22.30;nan;100377.84;4913973;29;20648;-70
2022/05/12 01:07:55;;;;;;;2.67;2.47;;;21.50;94.50;;;22.29;nan;100383.34;4928613;29;20646;-69
2022/05/12 01:10:24;;;;;;;2.60;2.40;;;21.50;94.60;;;22.27;nan;100385.38;4915727;29;20661;-68
2022/05/12 01:12:52;;;;;;;4.30;2.33;;;21.50;94.20;;;22.18;nan;100392.66;4915662;29;21055;-69
2022/05/12 01:15:24;;;;;;;3.20;2.50;;;21.40;94.30;;;22.16;nan;100393.88;4916406;29;20637;-69
2022/05/12 01:18:10;;;;;;;2.90;2.10;;;21.30;94.50;;;22.13;nan;100404.88;4917055;29;20618;-69
2022/05/12 01:20:39;;;;;;;2.47;2.00;;;21.40;94.40;;;22.15;nan;100408.16;4915394;29;20633;-69
2022/05/12 01:23:22;;;;;;;3.20;2.40;;;21.30;94.50;;;22.18;nan;100399.81;4917593;29;20649;-69
2022/05/12 01:25:50;;;;;;;3.03;2.43;;;21.40;94.50;;;22.13;nan;100421.63;4914685;29;20645;-69
2022/05/12 01:28:17;;;;;;;2.60;2.40;;;21.40;94.40;;;22.18;nan;100416.59;4916647;29;20637;-69
2022/05/12 01:30:44;;;;;;;4.53;2.00;;;21.40;94.30;;;22.15;nan;100424.09;4916127;29;20645;-70
2022/05/12 01:33:11;;;;;;;4.90;2.80;;;21.40;94.50;;;22.16;nan;100428.41;4916974;29;20666;-69
2022/05/12 01:35:38;;;;;;;4.00;1.90;;;21.40;94.40;;;22.24;nan;100431.75;4914810;29;20640;-69
2022/05/12 01:38:05;;;;;;;2.33;2.23;;;21.50;94.20;;;22.35;nan;100425.13;4916242;29;20629;-69
2022/05/12 01:40:32;;;;;;;3.80;2.43;;;21.60;93.80;;;22.33;nan;100421.81;4915898;29;21052;-70
2022/05/12 01:42:59;;;;;;;3.10;2.90;;;21.50;93.80;;;22.28;nan;100417.06;4916098;29;20665;-69
2022/05/12 01:45:26;;;;;;;4.60;2.33;;;21.50;94.00;;;22.23;nan;100422.13;4914870;29;20840;-69
2022/05/12 01:47:53;;;;;;;4.37;2.30;;;21.40;94.20;;;22.14;nan;100419.81;4915682;29;20645;-69
2022/05/12 01:50:21;;;;;;;2.70;2.50;;;21.40;94.20;;;22.13;nan;100431.44;4916445;29;21063;-69
2022/05/12 01:52:49;;;;;;;2.20;2.00;;;21.30;94.10;;;22.10;nan;100439.81;4915809;29;20673;-69
2022/05/12 01:55:19;;;;;;;2.37;2.20;;;21.30;94.10;;;22.01;nan;100455.03;4915834;29;20644;-68
2022/05/12 01:57:47;;;;;;;2.10;2.00;;;21.20;94.30;;;21.98;nan;100449.25;4913108;29;21019;-70
2022/05/12 02:00:21;;;;;;;2.47;2.27;;;21.20;94.50;;;21.87;nan;100450.56;4916138;29;20629;-69
2022/05/12 02:02:49;;;;;;;2.47;2.27;;;21.10;94.80;;;21.86;nan;100451.59;4915517;29;21175;-69
2022/05/12 02:05:16;;;;;;;2.73;2.50;;;21.10;94.90;;;21.89;nan;100453.06;4915621;29;20621;-69
2022/05/12 02:07:47;;;;;;;2.30;2.20;;;21.10;94.90;;;21.87;nan;100463.06;4930386;29;20638;-69
2022/05/12 02:10:25;;;;;;;2.43;2.23;;;21.10;95.20;;;21.82;nan;100476.91;4916751;29;21333;-70
2022/05/12 02:12:53;;;;;;;3.23;2.40;;;21.10;95.10;;;21.79;nan;100473.72;4929061;29;20736;-69
2022/05/12 02:15:20;;;;;;;2.33;2.23;;;21.00;95.30;;;21.84;nan;100469.56;4915380;29;20685;-69
2022/05/12 02:17:49;;;;;;;3.23;2.43;;;21.10;95.00;;;21.86;nan;100472.03;4915944;29;20693;-69
2022/05/12 02:20:20;;;;;;;2.07;1.97;;;21.10;95.00;;;21.83;nan;100480.38;4916803;29;20634;-69
2022/05/12 02:22:47;;;;;;;4.60;2.13;;;21.00;95.10;;;21.70;nan;100486.28;4914844;29;20680;-70
2022/05/12 02:25:15;;;;;;;2.43;2.33;;;20.90;95.30;;;21.71;nan;100490.59;4923883;29;20645;-69
2022/05/12 02:27:45;;;;;;;2.53;2.33;;;20.90;95.40;;;21.60;nan;100499.88;4916451;29;21238;-69
2022/05/12 02:30:28;;;;;;;3.33;2.00;;;20.80;95.60;;;21.54;nan;100505.91;4913840;29;20634;-69
2022/05/12 02:32:55;;;;;;;1.93;1.90;;;20.80;95.90;;;21.48;nan;100506.66;4908761;29;20661;-69
2022/05/12 02:35:24;;;;;;;2.97;2.50;;;20.70;96.10;;;21.46;nan;100499.88;4915109;29;20645;-69
2022/05/12 02:37:51;;;;;;;2.40;2.20;;;20.70;96.20;;;21.40;nan;100504.06;4912948;29;20650;-69
2022/05/12 02:40:22;;;;;;;2.80;2.30;;;20.70;96.40;;;21.35;nan;100517.09;4915235;29;21240;-68
2022/05/12 02:42:50;;;;;;;2.17;2.07;;;20.60;96.50;;;21.34;nan;100518.06;4928369;29;20685;-69
2022/05/12 02:45:17;;;;;;;2.20;2.10;;;20.60;96.70;;;21.33;nan;100524.41;4914456;29;20644;-69
2022/05/12 02:47:44;;;;;;;2.13;2.00;;;20.60;96.80;;;21.33;nan;100527.06;4915093;29;20630;-69
2022/05/12 02:50:14;;;;;;;2.17;2.07;;;20.60;96.80;;;21.29;nan;100525.78;4914337;29;20641;-69
2022/05/12 02:52:42;;;;;;;2.53;1.90;;;20.60;96.90;;;21.27;nan;100532.28;4915367;29;20645;-69
2022/05/12 02:55:10;;;;;;;2.00;1.90;;;20.50;97.00;;;21.21;nan;100525.03;4913367;29;20645;-69
2022/05/12 02:57:39;;;;;;;2.70;2.50;;;20.50;96.90;;;21.15;nan;100531.88;4911056;29;20645;-68
2022/05/12 03:00:12;;;;;;;3.83;2.20;;;20.40;97.20;;;21.11;nan;100533.25;4908975;29;20634;-69
2022/05/12 03:02:39;;;;;;;2.33;2.00;;;20.30;97.50;;;21.03;nan;100532.50;4913263;29;20728;-69
2022/05/12 03:05:06;;;;;;;3.20;2.27;;;20.30;97.80;;;21.02;nan;100534.28;4927793;29;20638;-69
2022/05/12 03:07:34;;;;;;;2.03;1.93;;;20.30;97.90;;;21.06;nan;100538.25;4914541;29;21122;-70
2022/05/12 03:10:01;;;;;;;2.60;2.10;;;20.30;97.90;;;21.07;nan;100545.22;4914037;29;20650;-69
2022/05/12 03:12:30;;;;;;;3.43;1.87;;;20.30;97.90;;;21.02;nan;100536.94;4914162;29;20646;-69
2022/05/12 03:14:57;;;;;;;2.40;2.20;;;20.30;98.20;;;20.93;nan;100539.84;4913151;29;20692;-69
2022/05/12 03:17:24;;;;;;;2.67;2.20;;;20.20;98.40;;;20.95;nan;100543.97;4913740;29;21198;-66
2022/05/12 03:19:51;;;;;;;2.53;2.37;;;20.20;98.40;;;20.85;nan;100543.38;4914527;29;21182;-68
2022/05/12 03:22:18;;;;;;;2.17;1.90;;;20.10;98.70;;;20.81;nan;100550.03;4913665;29;20678;-69
2022/05/12 03:24:44;;;;;;;1.90;1.80;;;20.00;98.80;;;20.81;nan;100544.75;4913371;29;20669;-69
2022/05/12 03:27:13;;;;;;;2.30;2.10;;;20.10;98.90;;;20.72;nan;100545.84;4914220;29;20625;-69
2022/05/12 03:29:40;;;;;;;2.43;2.23;;;20.00;99.20;;;20.63;nan;100557.50;4913827;29;20641;-65
2022/05/12 03:32:10;;;;;;;2.30;2.10;;;19.90;99.50;;;20.66;nan;100562.41;4914614;29;20642;-69
2022/05/12 03:34:39;;;;;;;2.00;1.70;;;19.90;99.60;;;20.64;nan;100569.72;4914134;29;20661;-69
2022/05/12 03:37:09;;;;;;;2.13;2.03;;;19.90;99.70;;;20.56;nan;100575.09;4927311;29;20668;-69
2022/05/12 03:39:42;;;;;;;2.17;2.07;;;19.80;99.90;;;20.49;nan;100577.63;4913472;29;20649;-69
2022/05/12 03:42:12;;;;;;;4.87;2.07;;;19.80;99.90;;;20.51;nan;100580.09;4922380;29;20684;-66
2022/05/12 03:44:54;;;;;;;2.10;2.00;;;19.80;99.90;;;20.48;nan;100599.84;4914370;29;20645;-68
2022/05/12 03:47:26;;;;;;;2.20;2.00;;;19.70;99.90;;;20.46;nan;100596.53;4913592;29;20636;-69
2022/05/12 03:49:59;;;;;;;2.17;2.07;;;19.80;99.90;;;20.57;nan;100600.63;4913828;29;21010;-69
2022/05/12 03:52:26;;;;;;;2.70;1.80;;;19.80;99.90;;;20.60;nan;100611.69;4913800;29;20634;-67
2022/05/12 03:54:54;;;;;;;2.20;2.10;;;19.90;99.90;;;20.66;nan;100615.44;4913906;29;20717;-68
2022/05/12 03:57:26;;;;;;;1.87;1.77;;;20.00;99.90;;;20.71;nan;100621.06;4928201;29;20622;-69
2022/05/12 03:59:55;;;;;;;2.40;2.20;;;20.00;99.90;;;20.78;nan;100625.47;4912361;29;20653;-69
2022/05/12 04:02:22;;;;;;;2.07;1.87;;;20.10;99.90;;;20.81;nan;100629.59;4913781;29;20721;-69
2022/05/12 04:04:49;;;;;;;2.17;1.87;;;20.10;99.90;;;20.82;nan;100632.09;4913329;29;20685;-69
2022/05/12 04:07:21;;;;;;;1.80;1.70;;;20.20;99.90;;;20.86;nan;100632.56;4913568;29;20692;-69
2022/05/12 04:09:48;;;;;;;1.80;1.70;;;20.20;99.90;;;20.83;nan;100638.19;4911706;29;20661;-69
2022/05/12 04:12:16;;;;;;;1.60;1.60;;;20.20;99.90;;;20.86;nan;100632.56;4912377;29;21038;-69
2022/05/12 04:14:43;;;;;;;1.67;1.50;;;20.20;99.90;;;20.91;nan;100640.81;4911264;29;20669;-69
2022/05/12 04:17:13;;;;;;;2.30;1.73;;;20.20;99.90;;;20.98;nan;100644.41;4913763;29;20661;-69
2022/05/12 04:19:41;;;;;;;2.03;1.83;;;20.30;99.90;;;20.97;nan;100637.47;4913020;29;20637;-67
2022/05/12 04:22:09;;;;;;;4.00;1.90;;;20.30;99.90;;;20.95;nan;100644.78;4912573;29;21232;-69
2022/05/12 04:24:36;;;;;;;1.97;1.83;;;20.30;99.90;;;20.93;nan;100654.72;4912553;29;20668;-69
2022/05/12 04:27:03;;;;;;;1.70;1.60;;;20.20;99.90;;;20.97;nan;100660.50;4911919;29;20638;-69
2022/05/12 04:29:30;;;;;;;1.40;1.40;;;20.20;99.90;;;20.95;nan;100655.38;4911214;29;20634;-69
2022/05/12 04:31:57;;;;;;;2.13;1.90;;;20.20;99.90;;;20.94;nan;100666.16;4912910;29;21020;-69
2022/05/12 04:35:11;;;;;;;2.00;1.90;;;20.20;99.90;;;20.97;nan;100666.63;4912054;29;21082;-69
2022/05/12 04:37:11;;;;;;;1.80;1.80;;;20.30;99.90;;;21.02;nan;100668.75;4911666;29;21076;-69
2022/05/12 04:39:38;;;;;;;2.93;2.13;;;20.30;99.90;;;20.99;nan;100674.41;4913240;29;20614;-66
2022/05/12 04:42:05;;;;;;;1.50;1.50;;;20.30;99.90;;;20.96;nan;100674.75;4912917;29;20677;-70
2022/05/12 04:44:32;;;;;;;1.80;1.70;;;20.20;99.90;;;21.02;nan;100674.06;4913212;29;20650;-68
2022/05/12 04:46:59;;;;;;;1.80;1.73;;;20.30;99.90;;;21.06;nan;100678.84;4913319;29;20638;-70
2022/05/12 04:49:28;;;;;;;2.13;2.03;;;20.30;99.90;;;21.08;nan;100681.34;4912487;29;21228;-69
2022/05/12 04:51:57;;;;;;;2.60;1.70;;;20.40;99.90;;;21.19;nan;100689.72;4913926;29;20693;-70
2022/05/12 04:54:24;;;;;;;2.23;1.80;;;20.50;99.90;;;21.49;nan;100680.84;4912768;29;20700;-69
2022/05/12 04:56:51;;;;;;;1.97;1.87;;;20.80;99.90;;;21.59;nan;100694.69;4914106;29;20750;-69
2022/05/12 04:59:18;;;;;;;2.93;2.20;;;21.00;99.30;;;21.60;nan;100699.00;4912072;29;20653;-69
2022/05/12 05:01:45;;;;;;;3.13;1.93;;;21.00;99.30;;;21.59;nan;100692.03;4911868;29;20677;-69
2022/05/12 05:04:12;;;;;;;2.23;1.80;;;21.00;99.30;;;21.55;nan;100703.22;4917349;29;21081;-70
2022/05/12 05:06:39;;;;;;;1.40;1.40;;;20.90;99.40;;;21.49;nan;100703.91;4913025;29;20626;-68
2022/05/12 05:09:06;;;;;;;1.93;1.83;;;20.80;99.50;;;21.40;nan;100711.09;4912231;29;20622;-70
2022/05/12 05:11:37;;;;;;;2.53;1.90;;;20.70;99.90;;;21.36;nan;100709.81;4913073;29;20629;-70
2022/05/12 05:14:05;;;;;;;2.00;1.90;;;20.70;99.90;;;21.29;nan;100714.19;4913210;29;20642;-70
2022/05/12 05:16:32;;;;;;;2.53;1.90;;;20.60;99.90;;;21.43;nan;100723.19;4927565;29;20638;-69
2022/05/12 05:19:00;;;;;;;2.10;1.93;;;20.70;99.90;;;21.52;nan;100727.44;4927575;29;20626;-70
2022/05/12 05:21:27;;;;;;;1.97;1.87;;;20.80;99.90;;;21.57;nan;100733.88;4912889;29;20648;-69
2022/05/12 05:23:54;;;;;;;1.90;1.80;;;20.90;99.90;;;21.58;nan;100740.00;4912819;29;20769;-70
2022/05/12 05:26:21;;;;;;;2.30;2.03;;;20.90;99.90;;;21.57;nan;100739.19;4912255;29;20641;-69
2022/05/12 05:28:49;;;;;;;1.97;1.70;;;20.90;99.90;;;21.51;nan;100745.19;4913052;29;20630;-70
2022/05/12 05:31:16;;;;;;;1.60;1.50;;;20.90;99.90;;;21.47;nan;100749.22;4912214;29;20646;-70
2022/05/12 05:33:43;;;;;;;1.87;1.77;;;20.80;99.90;;;21.38;nan;100752.13;4911322;29;20672;-70
2022/05/12 05:36:10;;;;;;;1.60;1.50;;;20.70;99.90;;;21.40;nan;100745.63;4912337;29;20653;-70
2022/05/12 05:38:38;;;;;;;1.63;1.57;;;20.70;99.90;;;21.30;nan;100760.13;4911447;29;20614;-68
2022/05/12 05:41:05;;;;;;;1.73;1.63;;;20.70;99.90;;;21.27;nan;100757.84;4913977;29;20701;-69
2022/05/12 05:43:32;;;;;;;2.07;1.67;;;20.60;99.90;;;21.29;nan;100758.47;4916800;29;21248;-68
2022/05/12 05:45:59;;;;;;;3.03;1.80;;;20.70;99.90;;;21.25;nan;100773.91;4915730;29;20642;-70
2022/05/12 05:48:26;;;;;;;3.00;1.67;;;20.60;99.90;;;21.25;nan;100775.75;4915792;29;20630;-70
2022/05/12 05:53:39;;;;;;;2.07;1.97;;;20.80;99.90;;;21.39;nan;100773.19;4915468;29;20715;-68
2022/05/12 05:56:17;;;;;;;1.80;1.60;;;20.70;99.90;;;21.54;nan;100782.03;4915783;29;21298;-70
2022/05/12 05:58:45;;;;;;;2.37;1.90;;;20.90;99.90;;;21.71;nan;100780.06;4915822;29;20662;-70
2022/05/12 06:01:14;;;;;;;3.23;1.40;;;21.10;99.90;;;21.71;nan;100789.84;4912267;29;20649;-69
2022/05/12 06:03:41;;;;;;;2.47;2.30;;;21.20;99.90;;;21.84;nan;100792.78;4915461;29;20695;-69
2022/05/12 06:06:08;;;;;;;2.90;1.87;;;21.20;99.90;;;21.86;nan;100791.59;4915691;29;20642;-69
2022/05/12 06:08:35;;;;;;;1.90;1.80;;;21.20;99.90;;;21.83;nan;100789.28;4915982;29;20713;-69
2022/05/12 06:11:05;;;;;;;1.50;1.47;;;21.20;99.90;;;21.86;nan;100796.06;4915443;29;20634;-69
2022/05/12 06:13:34;;;;;;;2.13;2.03;;;21.20;99.90;;;21.90;nan;100803.50;4914410;29;20672;-69
2022/05/12 06:16:02;;;;;;;2.07;1.87;;;21.20;99.90;;;21.97;nan;100806.28;4914345;29;20646;-70
2022/05/12 06:18:29;;;;;;;1.53;1.47;;;21.30;99.90;;;21.96;nan;100805.44;4914851;29;20630;-67
2022/05/12 06:20:57;;;;;;;1.77;1.67;;;21.30;99.90;;;22.03;nan;100811.69;4921152;29;20634;-70
2022/05/12 06:23:24;;;;;;;1.73;1.53;;;21.40;99.90;;;22.03;nan;100814.38;4915605;29;21276;-69
2022/05/12 06:25:51;;;;;;;1.70;1.60;;;21.30;99.90;;;21.91;nan;100814.97;4918968;29;20641;-69
2022/05/12 06:28:18;;;;;;;2.73;1.67;;;21.30;99.90;;;21.84;nan;100822.81;4914460;29;20643;-69
2022/05/12 06:30:45;;;;;;;2.00;1.90;;;21.20;99.90;;;22.03;nan;100832.97;4914097;29;20649;-68
2022/05/12 06:45:12;;;;;;;2.30;1.80;;;21.40;99.90;;;22.12;55.17;100849.66;5083811;27;20806;-67
2022/05/12 06:47:48;;;;;;;1.87;1.77;;;21.50;99.70;;;22.16;54.85;100845.63;5063243;28;20634;-69
2022/05/12 06:50:19;;;;;;;1.87;1.80;;;21.60;99.50;;;22.26;54.72;100851.50;5056237;28;21015;-67
2022/05/12 06:52:48;;;;;;;1.43;1.43;;;21.60;99.30;;;22.28;54.64;100849.50;5060085;28;21243;-69
2022/05/12 06:55:15;;;;;;;1.60;1.50;;;21.60;99.30;;;22.24;54.93;100853.53;5065349;28;20658;-70
2022/05/12 06:57:42;;;;;;;2.20;2.00;;;21.60;99.30;;;22.26;54.82;100852.34;5066319;28;20622;-69
2022/05/12 07:00:13;;;;;;;1.97;1.30;;;21.60;99.40;;;22.28;54.93;100852.16;5055737;28;21103;-68
2022/05/12 07:02:40;;;;;;;1.53;1.53;;;21.60;99.50;;;22.34;54.74;100854.94;5046566;28;21063;-68
2022/05/12 07:05:08;;;;;;;1.30;1.20;;;21.70;99.20;;;22.39;54.25;100851.72;5046357;28;20648;-68
2022/05/12 07:07:36;;;;;;;3.17;1.73;;;21.70;99.10;;;22.40;54.27;100859.50;5056743;28;20649;-69
2022/05/12 07:10:05;;;;;;;3.70;1.70;;;21.70;98.80;;;22.41;54.02;100849.72;5059856;28;20635;-68
2022/05/12 07:12:33;;;;;;;2.20;2.10;;;21.80;98.70;;;22.51;53.96;100855.59;5054325;28;20702;-69
2022/05/12 07:15:01;;;;;;;5.00;4.53;;;21.90;98.60;;;22.73;53.23;100860.03;5065166;28;20697;-68
2022/05/12 07:17:28;;;;;;;2.60;2.17;;;22.10;98.10;;;22.96;52.44;100858.09;5065450;28;20680;-67
2022/05/12 07:26:35;;;;;;;2.27;2.07;;;22.40;97.40;;;23.17;51.74;100862.66;5066692;28;20638;-66
2022/05/12 07:28:16;;;;;;;1.70;1.60;;;23.20;95.40;;;24.17;48.27;100875.06;5049907;28;20678;-66
2022/05/12 07:31:01;;;;;;;5.93;1.70;;;23.60;93.80;;;24.44;46.85;100873.44;5059807;28;20630;-66
2022/05/12 07:33:39;;;;;;;1.50;1.40;;;23.90;92.70;;;24.27;47.46;100866.72;5045442;28;20756;-68
2022/05/12 07:36:14;;;;;;;1.53;1.43;;;23.70;92.40;;;24.70;46.46;100872.78;5051349;28;20662;-65
2022/05/12 07:38:42;;;;;;;1.43;1.33;;;24.10;91.80;;;25.08;45.51;100874.06;5066657;28;20706;-67
2022/05/12 07:41:12;;;;;;;1.73;1.30;;;24.60;90.70;;;25.26;44.89;100868.97;5058350;28;21204;-68
2022/05/12 07:43:41;;;;;;;2.30;1.70;;;24.70;89.90;;;26.07;42.99;100882.16;5053301;28;20621;-69
2022/05/12 07:46:10;;;;;;;1.40;1.40;;;25.50;86.80;;;27.18;40.71;100881.22;5050442;28;20661;-68
2022/05/12 07:48:39;;;;;;;1.70;1.40;;;26.70;82.10;;;28.03;38.85;100888.81;5056269;28;21008;-69
2022/05/12 07:51:06;;;;;;;1.63;1.53;;;27.60;77.00;;;28.51;37.19;100888.22;5057655;28;20720;-69
2022/05/12 07:53:34;;;;;;;1.83;1.30;;;28.10;73.00;;;28.92;36.78;100894.63;5066977;28;20753;-71
2022/05/12 07:56:01;;;;;;;2.10;1.50;;;28.50;71.10;;;29.25;35.85;100894.28;5071142;28;20658;-72
2022/05/12 07:58:28;;;;;;;1.87;1.77;;;28.80;69.20;;;29.40;35.11;100897.41;5071795;28;20614;-69
2022/05/12 08:00:55;;;;;;;1.40;1.30;;;29.00;67.00;;;29.55;35.44;100897.00;5059591;28;20630;-70
2022/05/12 08:03:23;;;;;;;1.60;1.50;;;29.00;66.10;;;29.80;34.68;100908.47;5070093;28;20699;-69
2022/05/12 08:05:51;;;;;;;2.10;1.60;;;29.30;65.20;;;30.78;33.50;100903.34;5063507;28;20753;-69
2022/05/12 08:08:18;;;;;;;1.43;1.33;;;30.40;63.10;;;31.26;31.94;100903.88;5072565;28;20629;-69
2022/05/12 08:10:45;;;;;;;2.03;1.50;;;30.90;59.60;;;31.84;31.10;100899.06;5060891;28;20635;-70
2022/05/12 08:13:16;;;;;;;1.40;1.30;;;31.40;58.40;;;32.80;29.41;100911.44;5050681;28;20643;-70
2022/05/12 08:15:44;;;;;;;1.40;1.30;;;32.40;55.40;;;34.28;27.20;100911.00;5051458;28;20746;-69
2022/05/12 08:18:13;;;;;;;1.00;1.00;;;33.90;52.90;;;36.77;24.61;100924.00;5051507;28;20619;-72
2022/05/12 08:20:40;;;;;;;1.50;1.40;;;36.70;49.00;;;38.72;21.88;100920.31;5051068;28;21547;-71
2022/05/12 08:23:07;;;;;;;1.40;1.07;;;38.90;44.80;;;40.15;20.81;100932.63;5051884;28;21328;-70
2022/05/12 08:25:34;;;;;;;1.53;1.43;;;40.20;43.80;;;40.78;19.81;100939.16;5051756;28;20651;-72
2022/05/12 08:28:01;;;;;;;1.30;1.30;;;40.80;41.40;;;40.27;19.38;100930.25;5052065;28;20979;-71
2022/05/12 08:30:30;;;;;;;1.17;1.17;;;40.60;40.00;;;39.28;20.23;100931.41;5064704;28;21052;-69
2022/05/12 08:32:58;;;;;;;1.47;1.33;;;39.40;40.40;;;38.14;21.58;100924.13;5071251;28;20634;-70
2022/05/12 08:35:26;;;;;;;1.73;1.63;;;38.10;41.00;;;37.05;22.73;100922.56;5060302;28;20655;-70
2022/05/12 08:37:53;;;;;;;1.33;1.23;;;36.80;42.10;;;36.51;23.07;100922.41;5068449;28;20629;-69
2022/05/12 08:40:56;;;;;;;1.60;1.50;;;36.20;42.90;;;34.94;24.91;100923.91;5070635;28;21211;-70
2022/05/12 08:43:46;;;;;;;2.40;1.60;;;34.70;43.90;;;33.73;26.35;100905.06;5051921;28;20655;-70
2022/05/12 08:46:22;;;;;;;1.60;1.50;;;33.40;45.90;;;33.02;27.77;100901.53;5057128;28;20647;-70
2022/05/12 08:49:04;;;;;;;2.30;1.13;;;32.40;46.80;;;32.90;27.87;100909.69;5069881;28;20625;-69
2022/05/12 08:51:35;;;;;;;1.30;1.20;;;32.40;47.40;;;32.09;29.08;100902.22;5063818;28;20631;-69
2022/05/12 08:54:12;;;;;;;2.83;1.40;;;31.60;48.10;;;34.38;25.77;100909.19;5051806;28;20651;-69
2022/05/12 08:56:40;;;;;;;1.53;1.43;;;33.60;46.60;;;37.19;23.48;100915.41;5056600;28;20640;-69
2022/05/12 08:59:08;;;;;;;1.23;1.13;;;36.90;44.00;;;36.39;23.35;100919.13;5071696;28;20621;-69
2022/05/12 09:02:02;;;;;;;1.77;1.27;;;36.30;42.80;;;34.83;25.44;100916.81;5066543;28;20730;-70
2022/05/12 09:05:06;;;;;;;1.30;1.30;;;34.50;44.30;;;32.71;27.81;100927.28;5067875;28;20753;-69
2022/05/12 09:07:45;;;;;;;12.10;1.60;;;32.50;46.80;;;31.19;30.39;100914.78;5050784;28;21195;-69
2022/05/12 09:10:43;;;;;;;3.03;1.30;;;30.90;48.90;;;30.42;31.20;100924.06;5071422;28;20618;-67
2022/05/12 09:13:19;;;;;;;1.20;1.20;;;29.90;49.70;;;29.71;32.29;100907.94;5069350;28;20631;-70
2022/05/12 09:16:06;;;;;;;3.27;1.57;;;29.00;51.00;;;29.21;32.29;100908.41;5070758;28;20737;-69
2022/05/12 09:18:36;;;;;;;4.73;1.30;;;28.60;51.70;;;29.32;32.54;100911.16;5050641;28;20678;-69
2022/05/12 09:21:11;;;;;;;1.17;1.17;;;28.60;51.90;;;31.06;29.31;100914.22;5050379;28;20608;-70
2022/05/12 09:23:38;;;;;;;1.17;1.07;;;30.30;49.80;;;34.40;25.51;100919.75;5050422;28;21000;-67
2022/05/12 09:26:30;;;;;;;1.67;1.30;;;34.10;45.40;;;38.83;21.06;100921.03;5050501;28;20642;-71
2022/05/12 09:29:24;;;;;;;1.20;1.20;;;38.50;42.10;;;41.51;nan;100935.50;5051212;28;20612;-69
2022/05/12 09:32:16;;;;;;;1.07;1.07;;;41.40;39.50;;;42.77;nan;100935.06;5062733;28;20727;-71
2022/05/12 09:34:48;;;;;;;1.47;1.23;;;43.40;36.80;;;43.51;nan;100928.50;5069378;28;20689;-72
2022/05/12 09:37:18;;;;;;;1.47;1.00;;;43.50;36.10;;;43.81;nan;100922.06;5063734;28;20690;-70
2022/05/12 09:40:18;;;;;;;1.27;1.10;;;43.90;35.50;;;42.56;nan;100912.06;5049875;28;20646;-70
2022/05/12 09:42:56;;;;;;;1.40;1.30;;;42.80;35.70;;;42.02;nan;100921.41;5050022;28;20615;-71
2022/05/12 09:45:27;;;;;;;1.20;1.20;;;41.70;36.10;;;42.32;nan;100921.44;5069050;28;20651;-70
2022/05/12 09:48:40;;;;;;;1.63;1.00;;;42.20;35.70;;;44.45;nan;100919.38;5070119;28;20632;-70
2022/05/12 09:51:24;;;;;;;1.43;1.20;;;44.20;35.00;;;45.41;nan;100922.13;5021414;28;20663;-69
2022/05/12 09:54:12;;;;;;;1.17;1.07;;;45.40;34.20;;;46.23;nan;100914.91;5049524;28;20899;-70
2022/05/12 09:56:40;;;;;;;3.23;1.40;;;46.40;33.90;;;46.19;nan;100917.56;5050887;28;20677;-69
2022/05/12 09:59:23;;;;;;;1.33;1.00;;;46.10;33.50;;;42.73;nan;100920.38;5053275;28;20623;-69
2022/05/12 10:08:29;;;;;;;2.60;1.20;;;40.40;35.80;;;40.47;nan;100899.00;5065146;28;20630;-69
2022/05/12 10:11:02;;;;;;;3.90;1.07;;;40.00;36.50;;;41.44;nan;100896.75;5050910;28;20623;-70
2022/05/12 10:13:54;;;;;;;1.20;1.10;;;41.00;36.30;;;41.65;nan;100885.03;5047981;28;20623;-69
2022/05/12 10:16:30;;;;;;;1.23;1.13;;;41.90;35.80;;;40.25;nan;100894.19;5031629;28;21135;-70
2022/05/12 10:19:03;;;;;;;1.63;1.23;;;40.20;36.30;;;38.61;nan;100875.19;5048489;28;20625;-69
2022/05/12 10:21:46;;;;;;;1.60;1.43;;;38.40;37.50;;;36.58;nan;100865.84;5050468;28;20620;-71
2022/05/12 10:24:52;;;;;;;1.67;1.20;;;36.20;39.20;;;35.00;nan;100865.94;5048986;28;21207;-69
2022/05/12 10:27:33;;;;;;;1.80;1.30;;;34.60;40.80;;;33.40;nan;100866.28;5049904;28;20611;-69
2022/05/12 10:30:17;;;;;;;1.70;1.30;;;32.80;42.50;;;32.57;nan;100879.25;5061048;28;20644;-71
2022/05/12 10:33:04;;;;;;;1.80;1.20;;;31.70;43.80;;;31.97;nan;100871.81;5068429;28;20611;-71
2022/05/12 10:35:47;;;;;;;1.10;1.10;;;31.20;44.40;;;31.61;nan;100871.38;5065711;28;20686;-69
2022/05/12 10:38:57;;;;;;;6.63;1.70;;;30.80;45.00;;;31.26;nan;100858.03;5069184;28;20634;-69
2022/05/12 10:41:50;;;;;;;1.40;1.30;;;30.40;45.30;;;30.40;nan;100861.56;5069261;28;20630;-71
2022/05/12 10:44:29;;;;;;;1.90;1.40;;;29.80;46.30;;;29.85;nan;100857.50;5061756;28;20638;-69
2022/05/12 10:47:18;;;;;;;2.03;1.43;;;29.10;47.30;;;29.62;nan;100849.34;5064512;28;20618;-69
2022/05/12 10:50:08;;;;;;;2.00;1.20;;;28.80;47.90;;;29.21;nan;100850.09;5053716;28;20635;-72
2022/05/12 10:52:43;;;;;;;2.50;1.17;;;28.40;48.10;;;29.24;nan;100854.22;5048477;28;20624;-70
2022/05/12 10:55:43;;;;;;;1.40;1.30;;;28.40;48.40;;;29.17;nan;100848.09;5065602;28;20674;-69
2022/05/12 10:58:29;;;;;;;1.30;1.30;;;28.40;48.60;;;29.00;nan;100855.94;5069341;28;20626;-68
2022/05/12 11:01:16;;;;;;;1.50;1.40;;;28.20;49.50;;;28.81;nan;100844.38;5061291;28;20638;-69
2022/05/12 11:04:11;;;;;;;1.50;1.40;;;28.00;49.50;;;28.81;nan;100840.88;5047531;28;20636;-72
2022/05/12 11:06:55;;;;;;;1.00;1.00;;;28.00;49.20;;;28.77;nan;100853.09;5059473;28;20623;-69
2022/05/12 11:09:32;;;;;;;0.77;0.77;;;28.00;49.50;;;28.52;nan;100845.06;5069137;28;21012;-69
2022/05/12 11:12:16;;;;;;;3.63;1.30;;;27.90;49.40;;;28.30;nan;100849.22;5067779;28;20639;-69